createdAt,value
2022-07-27T00:01:21.702Z,61.45
2022-07-27T00:03:49.876Z,60.19
2022-07-27T00:06:17.853Z,60.64
2022-07-27T00:08:45.726Z,61.31
2022-07-27T00:11:13.611Z,61.16
2022-07-27T00:13:43.002Z,61.31
2022-07-27T00:16:11.378Z,60.94
2022-07-27T00:18:39.868Z,61.21
2022-07-27T00:21:08.687Z,61.30
2022-07-27T00:23:36.583Z,60.63
2022-07-27T00:26:04.870Z,60.69
2022-07-27T00:28:32.781Z,60.67
2022-07-27T00:31:02.734Z,61.46
2022-07-27T00:33:30.778Z,60.82
2022-07-27T00:35:58.972Z,61.37
2022-07-27T00:38:26.929Z,60.83
2022-07-27T00:40:54.991Z,60.48
2022-07-27T00:43:23.070Z,61.67
2022-07-27T00:45:51.045Z,62.12
2022-07-27T00:48:20.372Z,61.48
2022-07-27T00:50:49.112Z,60.57
2022-07-27T00:53:17.732Z,60.47
2022-07-27T00:55:46.455Z,60.28
2022-07-27T00:58:15.302Z,61.80
2022-07-27T01:00:43.321Z,62.56
2022-07-27T01:03:11.361Z,62.39
2022-07-27T01:05:42.970Z,62.62
2022-07-27T01:08:13.888Z,62.61
2022-07-27T01:10:43.725Z,63.21
2022-07-27T01:13:13.116Z,63.68
2022-07-27T01:15:41.524Z,64.05
2022-07-27T01:18:13.042Z,63.98
2022-07-27T01:20:43.187Z,63.53
2022-07-27T01:23:12.708Z,62.48
2022-07-27T01:25:43.115Z,62.21
2022-07-27T01:28:11.507Z,61.75
2022-07-27T01:30:39.658Z,62.26
2022-07-27T01:33:09.078Z,62.14
2022-07-27T01:35:37.953Z,62.09
2022-07-27T01:38:07.117Z,62.29
2022-07-27T01:40:37.587Z,61.88
2022-07-27T01:43:06.176Z,62.41
2022-07-27T01:45:34.286Z,62.62
2022-07-27T01:48:02.750Z,62.55
2022-07-27T01:50:31.310Z,63.33
2022-07-27T01:52:59.204Z,62.72
2022-07-27T01:55:27.246Z,62.91
2022-07-27T01:58:07.749Z,61.97
2022-07-27T02:00:36.429Z,62.82
2022-07-27T02:03:04.595Z,63.06
2022-07-27T02:05:32.827Z,63.70
2022-07-27T02:08:00.899Z,63.30
2022-07-27T02:10:28.934Z,63.51
2022-07-27T02:12:55.880Z,63.07
2022-07-27T02:15:28.051Z,64.43
2022-07-27T02:18:33.318Z,64.24
2022-07-27T02:20:59.262Z,63.71
2022-07-27T02:23:27.598Z,64.81
2022-07-27T02:25:55.963Z,64.93
2022-07-27T02:28:24.021Z,64.90
2022-07-27T02:30:53.444Z,63.73
2022-07-27T02:33:21.417Z,64.31
2022-07-27T02:35:50.938Z,65.37
2022-07-27T02:38:19.279Z,64.63
2022-07-27T02:40:47.419Z,64.29
2022-07-27T02:43:15.633Z,65.16
2022-07-27T02:45:43.629Z,64.85
2022-07-27T02:48:16.050Z,65.26
2022-07-27T02:50:44.004Z,65.91
2022-07-27T02:53:12.308Z,64.81
2022-07-27T02:55:40.209Z,64.94
2022-07-27T02:58:08.263Z,65.81
2022-07-27T03:00:36.111Z,66.17
2022-07-27T03:03:04.135Z,66.20
2022-07-27T03:05:33.559Z,66.41
2022-07-27T03:08:01.675Z,65.76
2022-07-27T03:10:29.942Z,66.05
2022-07-27T03:12:57.956Z,66.62
2022-07-27T03:15:26.471Z,66.58
2022-07-27T03:17:54.597Z,66.50
2022-07-27T03:20:22.511Z,66.89
2022-07-27T03:22:51.815Z,66.02
2022-07-27T03:25:19.734Z,66.90
2022-07-27T03:27:48.430Z,67.93
2022-07-27T03:30:16.562Z,67.92
2022-07-27T03:32:44.523Z,67.53
2022-07-27T03:35:13.158Z,68.27
2022-07-27T03:37:41.605Z,68.30
2022-07-27T03:40:12.793Z,68.83
2022-07-27T03:42:40.692Z,67.59
2022-07-27T03:45:09.935Z,67.63
2022-07-27T03:47:37.889Z,68.19
2022-07-27T03:50:06.680Z,67.66
2022-07-27T03:52:35.101Z,67.99
2022-07-27T03:55:03.434Z,68.19
2022-07-27T03:57:33.168Z,68.23
2022-07-27T04:00:01.251Z,68.51
2022-07-27T04:02:29.261Z,68.47
2022-07-27T04:04:57.312Z,68.78
2022-07-27T04:07:25.199Z,68.91
2022-07-27T04:09:53.077Z,68.89
2022-07-27T04:12:20.997Z,69.28
2022-07-27T04:14:50.679Z,68.58
2022-07-27T04:17:54.347Z,68.22
2022-07-27T04:20:09.135Z,67.67
2022-07-27T04:22:37.420Z,67.98
2022-07-27T04:25:06.126Z,67.90
2022-07-27T04:27:34.258Z,68.34
2022-07-27T04:30:08.955Z,68.39
2022-07-27T04:32:37.599Z,68.67
2022-07-27T04:35:06.324Z,68.64
2022-07-27T04:37:34.975Z,68.78
2022-07-27T04:40:03.493Z,67.83
2022-07-27T04:42:31.637Z,68.88
2022-07-27T04:44:59.860Z,68.65
2022-07-27T04:47:29.899Z,69.29
2022-07-27T04:49:57.937Z,68.86
2022-07-27T04:52:26.731Z,68.87
2022-07-27T04:54:57.075Z,68.60
2022-07-27T04:57:24.950Z,67.84
2022-07-27T04:59:52.879Z,67.97
2022-07-27T05:02:21.114Z,67.91
2022-07-27T05:04:50.627Z,67.95
2022-07-27T05:07:19.732Z,67.85
2022-07-27T05:09:47.731Z,67.93
2022-07-27T05:12:15.812Z,67.41
2022-07-27T05:14:43.749Z,68.16
2022-07-27T05:17:11.726Z,67.46
2022-07-27T05:19:41.054Z,67.23
2022-07-27T05:22:11.275Z,67.18
2022-07-27T05:24:39.322Z,67.25
2022-07-27T05:27:07.316Z,68.33
2022-07-27T05:29:35.828Z,68.70
2022-07-27T05:32:05.027Z,67.40
2022-07-27T05:34:33.090Z,68.23
2022-07-27T05:37:01.211Z,68.28
2022-07-27T05:39:31.275Z,67.68
2022-07-27T05:41:59.283Z,67.50
2022-07-27T05:44:27.522Z,67.74
2022-07-27T05:46:56.715Z,67.11
2022-07-27T05:49:25.639Z,67.21
2022-07-27T05:51:53.787Z,66.99
2022-07-27T05:54:21.918Z,66.77
2022-07-27T05:56:52.334Z,66.76
2022-07-27T05:59:20.239Z,66.20
2022-07-27T06:01:48.193Z,67.41
2022-07-27T06:04:16.453Z,68.07
2022-07-27T06:07:01.749Z,67.86
2022-07-27T06:09:29.802Z,66.40
2022-07-27T06:11:59.496Z,66.73
2022-07-27T06:14:27.523Z,66.50
2022-07-27T06:16:55.541Z,64.03
2022-07-27T06:19:23.546Z,64.37
2022-07-27T06:22:04.595Z,63.96
2022-07-27T06:24:32.652Z,62.64
2022-07-27T06:27:02.130Z,63.09
2022-07-27T06:29:30.309Z,61.91
2022-07-27T06:31:58.274Z,62.53
2022-07-27T06:34:27.934Z,61.58
2022-07-27T06:37:00.018Z,61.74
2022-07-27T06:39:28.448Z,60.68
2022-07-27T06:41:58.381Z,62.06
2022-07-27T06:44:28.896Z,61.79
2022-07-27T06:46:57.018Z,62.47
2022-07-27T06:49:25.268Z,63.64
2022-07-27T06:51:53.237Z,63.60
2022-07-27T06:54:22.701Z,63.29
2022-07-27T06:56:51.062Z,62.11
2022-07-27T06:59:19.381Z,61.34
2022-07-27T07:01:49.164Z,61.19
2022-07-27T07:04:17.287Z,61.99
2022-07-27T07:06:51.632Z,61.48
2022-07-27T07:09:19.558Z,60.29
2022-07-27T07:11:48.187Z,61.20
2022-07-27T07:14:16.873Z,60.10
2022-07-27T07:16:44.829Z,60.61
2022-07-27T07:19:14.482Z,60.08
2022-07-27T07:21:42.681Z,60.34
2022-07-27T07:24:11.662Z,60.22
2022-07-27T07:26:40.801Z,59.30
2022-07-27T07:29:09.191Z,58.74
2022-07-27T07:31:37.926Z,57.87
2022-07-27T07:34:06.434Z,57.42
2022-07-27T07:36:36.157Z,57.46
2022-07-27T07:39:17.761Z,58.17
2022-07-27T07:41:49.575Z,57.67
2022-07-27T07:44:18.576Z,57.38
2022-07-27T07:46:47.458Z,57.17
2022-07-27T07:49:17.062Z,57.84
2022-07-27T07:51:46.818Z,58.78
2022-07-27T07:54:14.926Z,58.89
2022-07-27T07:56:57.321Z,59.04
2022-07-27T07:59:32.073Z,56.33
2022-07-27T08:02:03.222Z,57.44
2022-07-27T08:04:31.868Z,56.97
2022-07-27T08:07:01.220Z,56.66
2022-07-27T08:09:29.468Z,56.46
2022-07-27T08:11:57.978Z,55.59
2022-07-27T08:14:27.063Z,55.83
2022-07-27T08:16:55.392Z,56.58
2022-07-27T08:19:23.409Z,55.99
2022-07-27T08:21:51.912Z,56.29
2022-07-27T08:24:22.852Z,55.50
2022-07-27T08:26:50.950Z,55.88
2022-07-27T08:29:19.294Z,54.65
2022-07-27T08:31:53.787Z,54.38
2022-07-27T08:34:24.193Z,53.21
2022-07-27T08:36:52.126Z,52.99
2022-07-27T08:40:05.724Z,54.44
2022-07-27T08:42:11.541Z,53.64
2022-07-27T08:44:41.860Z,53.32
2022-07-27T08:47:11.486Z,52.61
2022-07-27T08:49:43.708Z,53.49
2022-07-27T08:52:12.869Z,54.06
2022-07-27T08:54:44.046Z,52.82
2022-07-27T08:57:12.337Z,53.57
2022-07-27T08:59:40.307Z,53.77
2022-07-27T09:02:12.417Z,53.22
2022-07-27T09:04:41.655Z,53.81
2022-07-27T09:07:09.897Z,53.65
2022-07-27T09:09:47.522Z,53.58
2022-07-27T09:12:16.245Z,52.84
2022-07-27T09:14:44.097Z,52.62
2022-07-27T09:20:18.702Z,51.31
2022-07-27T09:22:50.776Z,50.65
2022-07-27T09:25:38.731Z,49.21
2022-07-27T09:28:11.142Z,50.33
2022-07-27T09:30:42.915Z,49.59
2022-07-27T09:33:11.345Z,50.55
2022-07-27T09:35:41.226Z,51.05
2022-07-27T09:38:20.386Z,52.62
2022-07-27T09:40:59.376Z,51.02
2022-07-27T09:46:17.179Z,47.02
2022-07-27T09:48:45.156Z,47.74
2022-07-27T09:51:57.526Z,48.47
2022-07-27T09:54:08.182Z,48.12
2022-07-27T09:56:37.616Z,46.53
2022-07-27T09:59:06.083Z,46.19
2022-07-27T10:01:43.940Z,44.79
2022-07-27T10:04:16.978Z,42.95
2022-07-27T10:07:01.737Z,41.96
2022-07-27T10:09:32.342Z,37.97
2022-07-27T10:12:04.758Z,40.14
2022-07-27T10:14:33.877Z,42.68
2022-07-27T10:17:02.730Z,39.09
2022-07-27T10:19:38.753Z,41.28
2022-07-27T10:22:06.952Z,43.46
2022-07-27T10:24:37.011Z,41.01
2022-07-27T10:27:21.519Z,40.32
2022-07-27T10:29:51.366Z,38.00
2022-07-27T10:32:31.602Z,37.35
2022-07-27T10:35:01.157Z,38.06
2022-07-27T10:37:31.151Z,39.83
2022-07-27T10:40:18.831Z,35.32
2022-07-27T10:42:54.248Z,33.80
2022-07-27T10:45:23.325Z,34.29
2022-07-27T10:47:52.886Z,37.99
2022-07-27T10:50:31.857Z,36.26
2022-07-27T10:53:11.295Z,37.46
2022-07-27T10:55:46.539Z,38.15
2022-07-27T10:58:52.360Z,39.86
2022-07-27T11:01:23.719Z,42.41
2022-07-27T11:03:56.928Z,42.13
2022-07-27T11:06:33.434Z,42.75
2022-07-27T11:11:59.902Z,41.69
2022-07-27T11:14:31.903Z,38.82
2022-07-27T11:17:32.330Z,39.75
2022-07-27T11:19:54.731Z,39.72
2022-07-27T11:23:03.089Z,34.48
2022-07-27T11:25:21.365Z,32.97
2022-07-27T11:27:51.101Z,36.99
2022-07-27T11:30:28.815Z,38.09
2022-07-27T11:32:57.223Z,35.64
2022-07-27T11:35:25.724Z,33.35
2022-07-27T11:38:03.045Z,31.98
2022-07-27T11:43:37.206Z,41.23
2022-07-27T11:46:19.534Z,42.22
2022-07-27T11:49:08.331Z,42.67
2022-07-27T11:51:38.456Z,41.72
2022-07-27T11:54:07.740Z,39.15
2022-07-27T11:56:38.742Z,41.44
2022-07-27T11:59:13.003Z,41.85
2022-07-27T12:01:50.687Z,41.71
2022-07-27T12:04:24.754Z,41.88
2022-07-27T12:07:02.721Z,42.22
2022-07-27T12:09:38.120Z,42.72
2022-07-27T12:12:12.442Z,35.62
2022-07-27T12:14:42.854Z,34.63
2022-07-27T12:17:20.975Z,37.59
2022-07-27T12:20:01.489Z,40.02
2022-07-27T12:22:33.335Z,40.54
2022-07-27T12:25:12.402Z,37.25
2022-07-27T12:27:55.427Z,33.52
2022-07-27T12:30:31.223Z,32.87
2022-07-27T12:33:02.171Z,32.16
2022-07-27T12:35:37.307Z,33.80
2022-07-27T12:38:10.667Z,31.06
2022-07-27T12:40:46.216Z,31.04
2022-07-27T12:43:18.244Z,33.35
2022-07-27T12:45:48.287Z,32.26
2022-07-27T12:48:20.006Z,33.52
2022-07-27T12:50:50.419Z,34.50
2022-07-27T12:53:18.903Z,35.17
2022-07-27T12:55:47.019Z,32.46
2022-07-27T12:58:15.249Z,32.04
2022-07-27T13:00:44.226Z,32.83
2022-07-27T13:03:12.424Z,31.90
2022-07-27T13:05:42.453Z,32.07
2022-07-27T13:08:11.709Z,31.63
2022-07-27T13:10:40.599Z,31.43
2022-07-27T13:13:09.660Z,31.20
2022-07-27T13:15:37.981Z,31.07
2022-07-27T13:18:06.389Z,30.89
2022-07-27T13:20:37.361Z,31.22
2022-07-27T13:23:09.719Z,30.49
2022-07-27T13:25:43.097Z,31.99
2022-07-27T13:28:13.434Z,32.29
2022-07-27T13:30:42.404Z,31.81
2022-07-27T13:33:10.449Z,32.44
2022-07-27T13:35:38.488Z,33.06
2022-07-27T13:38:06.941Z,34.00
2022-07-27T13:40:36.355Z,34.18
2022-07-27T13:43:09.056Z,33.37
2022-07-27T13:45:43.869Z,33.18
2022-07-27T13:48:13.067Z,33.14
2022-07-27T13:50:41.477Z,33.74
2022-07-27T13:53:09.398Z,33.67
2022-07-27T13:55:45.265Z,34.90
2022-07-27T13:58:13.857Z,35.52
2022-07-27T14:00:42.451Z,33.01
2022-07-27T14:03:11.293Z,33.51
2022-07-27T14:05:42.023Z,32.27
2022-07-27T14:08:18.562Z,32.13
2022-07-27T14:10:48.055Z,32.63
2022-07-27T14:13:17.286Z,32.96
2022-07-27T14:15:52.968Z,33.37
2022-07-27T14:18:29.072Z,33.03
2022-07-27T14:20:58.993Z,32.83
2022-07-27T14:23:28.437Z,33.76
2022-07-27T14:25:58.918Z,34.46
2022-07-27T14:28:28.368Z,34.67
2022-07-27T14:30:57.265Z,35.05
2022-07-27T14:33:29.859Z,36.22
2022-07-27T14:36:06.419Z,37.07
2022-07-27T14:38:34.700Z,37.39
2022-07-27T14:41:04.945Z,38.33
2022-07-27T14:43:34.319Z,38.58
2022-07-27T14:46:03.128Z,37.79
2022-07-27T14:49:04.688Z,38.67
2022-07-27T14:51:19.400Z,39.27
2022-07-27T14:53:47.454Z,39.23
2022-07-27T14:56:16.900Z,38.76
2022-07-27T14:58:45.409Z,38.82
2022-07-27T15:01:16.671Z,38.24
2022-07-27T15:03:45.818Z,37.67
2022-07-27T15:06:13.780Z,38.46
2022-07-27T15:08:41.686Z,38.42
2022-07-27T15:11:09.891Z,38.02
2022-07-27T15:13:39.305Z,38.50
2022-07-27T15:16:08.728Z,39.61
2022-07-27T15:18:38.619Z,38.97
2022-07-27T15:21:13.319Z,38.49
2022-07-27T15:23:42.972Z,38.93
2022-07-27T15:26:11.077Z,38.46
2022-07-27T15:28:41.483Z,38.51
2022-07-27T15:31:09.667Z,38.11
2022-07-27T15:33:38.016Z,38.86
2022-07-27T15:36:07.253Z,39.38
2022-07-27T15:38:38.123Z,40.11
2022-07-27T15:41:06.662Z,40.13
2022-07-27T15:43:35.230Z,39.73
2022-07-27T15:46:06.247Z,40.17
2022-07-27T15:48:34.494Z,40.60
2022-07-27T15:51:04.155Z,40.38
2022-07-27T15:53:32.986Z,40.40
2022-07-27T15:56:04.713Z,41.07
2022-07-27T15:58:32.698Z,40.85
2022-07-27T16:01:12.142Z,41.31
2022-07-27T16:03:40.588Z,40.12
2022-07-27T16:06:08.692Z,40.11
2022-07-27T16:08:36.582Z,40.09
2022-07-27T16:11:04.916Z,40.09
2022-07-27T16:13:34.227Z,40.32
2022-07-27T16:16:20.802Z,40.26
2022-07-27T16:18:51.214Z,40.86
2022-07-27T16:21:19.535Z,40.29
2022-07-27T16:23:47.509Z,40.50
2022-07-27T16:26:15.979Z,40.94
2022-07-27T16:28:46.067Z,40.90
2022-07-27T16:31:16.450Z,40.56
2022-07-27T16:33:45.428Z,40.40
2022-07-27T16:36:14.843Z,40.17
2022-07-27T16:38:49.549Z,39.23
2022-07-27T16:41:19.377Z,39.33
2022-07-27T16:43:47.529Z,39.71
2022-07-27T16:46:15.566Z,39.76
2022-07-27T16:48:43.859Z,40.19
2022-07-27T16:51:15.459Z,41.35
2022-07-27T16:53:46.131Z,40.19
2022-07-27T16:56:14.602Z,39.49
2022-07-27T16:58:44.641Z,40.24
2022-07-27T17:01:21.719Z,40.39
2022-07-27T17:03:54.582Z,41.47
2022-07-27T17:06:24.457Z,40.89
2022-07-27T17:08:52.372Z,40.75
2022-07-27T17:11:22.503Z,40.88
2022-07-27T17:13:58.242Z,41.50
2022-07-27T17:16:28.094Z,41.38
2022-07-27T17:18:56.084Z,40.88
2022-07-27T17:21:25.466Z,41.58
2022-07-27T17:23:53.442Z,40.88
2022-07-27T17:26:24.941Z,40.99
2022-07-27T17:28:53.489Z,41.74
2022-07-27T17:31:22.254Z,41.89
2022-07-27T17:33:51.482Z,42.07
2022-07-27T17:36:19.795Z,41.98
2022-07-27T17:38:50.600Z,42.15
2022-07-27T17:41:24.627Z,42.19
2022-07-27T17:43:54.017Z,41.61
2022-07-27T17:46:22.976Z,42.04
2022-07-27T17:48:51.702Z,42.48
2022-07-27T17:51:20.154Z,42.24
2022-07-27T17:53:49.616Z,42.23
2022-07-27T17:56:17.657Z,41.88
2022-07-27T17:58:46.281Z,41.94
2022-07-27T18:01:14.295Z,41.87
2022-07-27T18:03:42.822Z,42.40
2022-07-27T18:06:10.777Z,42.32
2022-07-27T18:08:38.862Z,42.75
2022-07-27T18:11:12.004Z,43.20
2022-07-27T18:13:40.474Z,42.69
2022-07-27T18:16:14.121Z,43.05
2022-07-27T18:18:43.747Z,43.39
2022-07-27T18:21:12.197Z,43.31
2022-07-27T18:23:40.591Z,43.81
2022-07-27T18:26:10.872Z,43.63
2022-07-27T18:28:40.335Z,43.90
2022-07-27T18:31:10.007Z,44.08
2022-07-27T18:33:45.889Z,45.05
2022-07-27T18:36:14.862Z,45.18
2022-07-27T18:38:44.924Z,45.02
2022-07-27T18:41:17.408Z,45.63
2022-07-27T18:43:50.945Z,46.21
2022-07-27T18:46:20.093Z,45.63
2022-07-27T18:48:49.083Z,46.10
2022-07-27T18:51:17.711Z,45.74
2022-07-27T18:53:46.692Z,45.74
2022-07-27T18:56:16.668Z,46.13
2022-07-27T18:58:44.872Z,45.80
2022-07-27T19:01:13.164Z,45.75
2022-07-27T19:03:43.476Z,45.64
2022-07-27T19:06:11.694Z,45.66
2022-07-27T19:08:45.339Z,46.32
2022-07-27T19:11:15.109Z,46.11
2022-07-27T19:13:45.174Z,46.39
2022-07-27T19:16:13.143Z,46.66
2022-07-27T19:18:41.030Z,47.44
2022-07-27T19:21:09.032Z,47.35
2022-07-27T19:23:36.948Z,47.54
2022-07-27T19:26:05.155Z,47.44
2022-07-27T19:28:33.760Z,47.61
2022-07-27T19:31:03.733Z,47.47
2022-07-27T19:33:32.287Z,47.87
2022-07-27T19:36:00.338Z,47.95
2022-07-27T19:38:29.384Z,48.15
2022-07-27T19:40:57.547Z,48.09
2022-07-27T19:43:25.608Z,48.13
2022-07-27T19:45:53.554Z,48.45
2022-07-27T19:48:24.705Z,47.92
2022-07-27T19:50:52.521Z,48.29
2022-07-27T19:53:20.460Z,48.25
2022-07-27T19:55:48.624Z,48.91
2022-07-27T19:58:17.459Z,49.30
2022-07-27T20:00:50.359Z,49.31
2022-07-27T20:03:18.946Z,49.43
2022-07-27T20:05:50.018Z,49.88
2022-07-27T20:08:18.487Z,49.68
2022-07-27T20:10:47.496Z,49.88
2022-07-27T20:13:15.796Z,49.07
2022-07-27T20:15:44.095Z,49.45
2022-07-27T20:18:13.706Z,49.92
2022-07-27T20:20:42.301Z,50.27
2022-07-27T20:23:12.004Z,50.47
2022-07-27T20:25:42.058Z,50.08
2022-07-27T20:28:10.149Z,50.11
2022-07-27T20:30:38.402Z,50.52
2022-07-27T20:33:06.404Z,50.06
2022-07-27T20:35:37.770Z,49.68
2022-07-27T20:38:06.049Z,49.92
2022-07-27T20:40:35.407Z,50.31
2022-07-27T20:43:04.659Z,50.08
2022-07-27T20:45:32.626Z,50.14
2022-07-27T20:48:00.579Z,50.21
2022-07-27T20:50:28.533Z,50.81
2022-07-27T20:52:57.758Z,51.03
2022-07-27T20:55:25.802Z,50.61
2022-07-27T20:57:55.123Z,50.86
2022-07-27T21:00:24.845Z,50.33
2022-07-27T21:02:57.113Z,50.29
2022-07-27T21:05:27.176Z,50.37
2022-07-27T21:07:56.025Z,50.74
2022-07-27T21:10:25.372Z,50.10
2022-07-27T21:12:55.046Z,50.16
2022-07-27T21:15:23.177Z,50.94
2022-07-27T21:18:02.277Z,50.61
2022-07-27T21:20:30.703Z,50.16
2022-07-27T21:23:16.056Z,50.62
2022-07-27T21:25:44.407Z,50.79
2022-07-27T21:28:16.925Z,51.03
2022-07-27T21:30:48.417Z,51.06
2022-07-27T21:33:16.374Z,51.75
2022-07-27T21:35:44.439Z,50.81
2022-07-27T21:38:12.403Z,51.36
2022-07-27T21:40:40.494Z,51.39
2022-07-27T21:43:09.034Z,51.28
2022-07-27T21:45:38.287Z,50.82
2022-07-27T21:48:07.253Z,51.21
2022-07-27T21:50:35.623Z,51.48
2022-07-27T21:53:03.582Z,51.60
2022-07-27T21:55:31.664Z,51.62
2022-07-27T21:57:59.488Z,51.60
2022-07-27T22:00:32.045Z,51.19
2022-07-27T22:03:01.407Z,51.92
2022-07-27T22:05:29.811Z,51.90
2022-07-27T22:07:58.231Z,52.34
2022-07-27T22:10:26.574Z,52.60
2022-07-27T22:12:54.936Z,52.68
2022-07-27T22:15:22.902Z,52.04
2022-07-27T22:17:51.450Z,51.96
2022-07-27T22:20:21.938Z,52.12
2022-07-27T22:22:50.693Z,52.08
2022-07-27T22:25:19.685Z,51.96
2022-07-27T22:27:47.565Z,51.79
2022-07-27T22:30:16.900Z,52.09
2022-07-27T22:32:45.635Z,51.43
2022-07-27T22:35:13.630Z,52.15
2022-07-27T22:37:43.045Z,52.21
2022-07-27T22:40:11.595Z,52.01
2022-07-27T22:42:39.797Z,52.38
2022-07-27T22:45:09.467Z,52.44
2022-07-27T22:47:38.248Z,52.06
2022-07-27T22:50:08.090Z,52.34
2022-07-27T22:52:44.031Z,52.26
2022-07-27T22:55:12.073Z,52.51
2022-07-27T22:57:40.038Z,52.13
2022-07-27T23:00:09.587Z,51.77
2022-07-27T23:02:37.458Z,52.13
2022-07-27T23:05:07.311Z,52.16
2022-07-27T23:07:35.312Z,51.89
2022-07-27T23:10:05.325Z,52.03
2022-07-27T23:12:33.426Z,52.24
2022-07-27T23:15:01.336Z,52.57
2022-07-27T23:17:29.671Z,52.52
2022-07-27T23:19:57.581Z,52.43
2022-07-27T23:22:25.574Z,52.68
2022-07-27T23:24:53.498Z,52.70
2022-07-27T23:27:22.797Z,52.55
2022-07-27T23:29:50.895Z,52.23
2022-07-27T23:32:18.707Z,52.11
2022-07-27T23:34:46.846Z,51.81
2022-07-27T23:37:15.536Z,51.80
2022-07-27T23:39:43.646Z,52.90
2022-07-27T23:42:11.515Z,52.67
2022-07-27T23:44:40.721Z,51.76
2022-07-27T23:47:08.548Z,52.30
2022-07-27T23:49:38.165Z,52.37
2022-07-27T23:52:06.693Z,53.23
2022-07-27T23:54:34.509Z,52.88
2022-07-27T23:57:02.544Z,52.82
2022-07-27T23:59:30.507Z,53.24
